METAR Data
IDs: Format: Raw Decoded Include TAF

Data at: 2210 UTC 02 Aug 2021

KSDA 022155Z AUTO VRB04KT 10SM CLR 25/14 A3012 RMK AO2